createdAt,value
2022-12-14T00:00:29.599Z,11.20
2022-12-14T00:02:58.397Z,11.73
2022-12-14T00:05:28.913Z,11.37
2022-12-14T00:07:58.573Z,11.03
2022-12-14T00:10:27.441Z,11.73
2022-12-14T00:12:55.701Z,11.10
2022-12-14T00:15:24.002Z,12.97
2022-12-14T00:17:53.126Z,11.37
2022-12-14T00:20:21.945Z,12.10
2022-12-14T00:22:50.218Z,10.67
2022-12-14T00:25:19.910Z,10.60
2022-12-14T00:27:48.295Z,11.37
2022-12-14T00:30:18.577Z,10.00
2022-12-14T00:32:47.236Z,11.90
2022-12-14T00:35:18.435Z,11.07
2022-12-14T00:37:48.896Z,12.03
2022-12-14T00:40:17.349Z,11.17
2022-12-14T00:42:46.984Z,11.23
2022-12-14T00:45:15.231Z,10.67
2022-12-14T00:47:43.435Z,12.57
2022-12-14T00:50:11.680Z,11.33
2022-12-14T00:52:40.304Z,11.63
2022-12-14T00:55:09.345Z,10.80
2022-12-14T00:57:37.678Z,11.70
2022-12-14T01:00:09.759Z,11.37
2022-12-14T01:02:38.029Z,10.10
2022-12-14T01:05:07.932Z,11.40
2022-12-14T01:07:36.202Z,11.77
2022-12-14T01:10:05.101Z,12.03
2022-12-14T01:12:33.299Z,9.90
2022-12-14T01:15:01.511Z,10.93
2022-12-14T01:17:31.236Z,10.83
2022-12-14T01:19:59.501Z,11.43
2022-12-14T01:22:27.966Z,10.80
2022-12-14T01:24:56.223Z,10.33
2022-12-14T01:27:24.410Z,10.90
2022-12-14T01:29:52.700Z,10.97
2022-12-14T01:32:20.927Z,11.40
2022-12-14T01:34:51.201Z,11.70
2022-12-14T01:37:19.584Z,10.10
2022-12-14T01:39:48.159Z,10.27
2022-12-14T01:42:17.287Z,11.33
2022-12-14T01:44:55.641Z,9.80
2022-12-14T01:47:40.679Z,9.50
2022-12-14T01:50:21.157Z,11.53
2022-12-14T01:52:53.837Z,10.03
2022-12-14T01:55:25.280Z,10.37
2022-12-14T01:57:58.220Z,10.30
2022-12-14T02:00:26.610Z,10.93
2022-12-14T02:03:00.320Z,9.67
2022-12-14T02:05:32.110Z,10.30
2022-12-14T02:08:00.637Z,10.90
2022-12-14T02:10:30.804Z,9.43
2022-12-14T02:13:05.756Z,10.10
2022-12-14T02:15:35.813Z,10.83
2022-12-14T02:18:06.176Z,11.40
2022-12-14T02:20:45.692Z,10.20
2022-12-14T02:23:55.249Z,9.93
2022-12-14T02:26:53.135Z,10.60
2022-12-14T02:30:00.152Z,10.80
2022-12-14T02:32:44.010Z,10.83
2022-12-14T02:35:18.566Z,10.90
2022-12-14T02:37:57.944Z,9.60
2022-12-14T02:40:34.454Z,9.53
2022-12-14T02:43:12.935Z,9.90
2022-12-14T02:45:44.529Z,9.70
2022-12-14T02:48:19.610Z,8.93
2022-12-14T02:50:56.113Z,9.97
2022-12-14T02:53:30.938Z,9.90
2022-12-14T02:56:05.256Z,8.27
2022-12-14T02:58:37.843Z,10.43
2022-12-14T03:01:10.444Z,9.13
2022-12-14T03:03:40.413Z,10.63
2022-12-14T03:06:15.614Z,10.03
2022-12-14T03:08:47.468Z,9.80
2022-12-14T03:11:21.429Z,9.70
2022-12-14T03:13:54.306Z,10.77
2022-12-14T03:16:26.436Z,10.07
2022-12-14T03:19:00.288Z,9.40
2022-12-14T03:21:33.191Z,9.33
2022-12-14T03:24:06.881Z,9.47
2022-12-14T03:26:42.840Z,9.27
2022-12-14T03:29:19.447Z,9.90
2022-12-14T03:31:50.042Z,11.03
2022-12-14T03:34:25.006Z,9.87
2022-12-14T03:36:57.972Z,10.80
2022-12-14T03:39:31.889Z,10.67
2022-12-14T03:42:07.572Z,10.33
2022-12-14T03:44:48.848Z,10.20
2022-12-14T03:47:31.723Z,9.67
2022-12-14T03:50:06.046Z,10.43
2022-12-14T03:52:38.489Z,9.53
2022-12-14T03:55:23.477Z,10.47
2022-12-14T03:58:08.621Z,10.07
2022-12-14T04:00:42.310Z,9.37
2022-12-14T04:03:15.188Z,9.80
2022-12-14T04:05:50.133Z,10.63
2022-12-14T04:08:27.842Z,9.57
2022-12-14T04:11:16.272Z,11.40
2022-12-14T04:14:07.801Z,10.10
2022-12-14T04:16:58.752Z,9.33
2022-12-14T04:19:32.797Z,9.97
2022-12-14T04:22:06.187Z,11.10
2022-12-14T04:24:57.632Z,11.17
2022-12-14T04:27:34.016Z,9.87
2022-12-14T04:30:02.904Z,11.03
2022-12-14T04:32:35.736Z,10.03
2022-12-14T04:35:10.406Z,11.17
2022-12-14T04:37:43.872Z,10.60
2022-12-14T04:40:15.892Z,11.07
2022-12-14T04:42:49.647Z,10.50
2022-12-14T04:45:21.678Z,9.63
2022-12-14T04:47:56.962Z,11.00
2022-12-14T04:50:30.261Z,9.57
2022-12-14T04:53:07.668Z,11.17
2022-12-14T04:55:37.959Z,11.57
2022-12-14T04:58:13.314Z,9.67
2022-12-14T05:00:58.211Z,11.27
2022-12-14T05:03:31.762Z,11.40
2022-12-14T05:06:09.225Z,10.57
2022-12-14T05:09:00.217Z,11.17
2022-12-14T05:14:25.745Z,10.17
2022-12-14T05:16:54.102Z,9.80
2022-12-14T05:19:26.385Z,10.80
2022-12-14T05:21:56.123Z,9.87
2022-12-14T05:24:26.495Z,10.90
2022-12-14T05:26:54.756Z,10.17
2022-12-14T05:29:22.934Z,9.37
2022-12-14T05:31:52.237Z,9.67
2022-12-14T05:34:20.577Z,9.77
2022-12-14T05:36:49.031Z,9.90
2022-12-14T05:39:17.667Z,9.87
2022-12-14T05:41:47.307Z,9.90
2022-12-14T05:44:15.550Z,10.40
2022-12-14T05:46:43.794Z,10.80
2022-12-14T05:49:12.224Z,11.60
2022-12-14T05:51:40.406Z,11.70
2022-12-14T05:54:08.827Z,9.30
2022-12-14T05:56:37.189Z,10.00
2022-12-14T05:59:07.160Z,10.80
2022-12-14T06:01:35.518Z,10.93
2022-12-14T06:04:03.773Z,10.67
2022-12-14T06:06:34.769Z,9.93
2022-12-14T06:09:03.102Z,9.93
2022-12-14T06:11:31.521Z,10.70
2022-12-14T06:13:59.753Z,11.67
2022-12-14T06:16:29.387Z,11.67
2022-12-14T06:18:59.195Z,10.20
2022-12-14T06:21:29.549Z,12.30
2022-12-14T06:23:58.659Z,12.73
2022-12-14T06:26:27.994Z,13.57
2022-12-14T06:28:56.816Z,13.50
2022-12-14T06:31:26.646Z,11.67
2022-12-14T06:33:58.170Z,11.57
2022-12-14T06:36:28.764Z,9.93
2022-12-14T06:38:58.818Z,11.97
2022-12-14T06:41:27.230Z,11.00
2022-12-14T06:43:55.550Z,10.83
2022-12-14T06:46:25.158Z,11.87
2022-12-14T06:48:55.447Z,11.17
2022-12-14T06:51:26.058Z,12.67
2022-12-14T06:53:56.064Z,12.20
2022-12-14T06:56:25.939Z,10.93
2022-12-14T06:58:55.312Z,10.47
2022-12-14T07:01:25.921Z,12.80
2022-12-14T07:03:56.035Z,11.83
2022-12-14T07:06:27.277Z,12.37
2022-12-14T07:08:57.268Z,14.37
2022-12-14T07:11:26.741Z,13.43
2022-12-14T07:13:55.399Z,12.80
2022-12-14T07:16:27.471Z,13.70
2022-12-14T07:18:56.539Z,11.50
2022-12-14T07:21:26.662Z,12.13
2022-12-14T07:23:55.143Z,11.37
2022-12-14T07:26:25.878Z,12.30
2022-12-14T07:28:54.884Z,11.30
2022-12-14T07:31:24.447Z,11.50
2022-12-14T07:33:54.540Z,12.43
2022-12-14T07:36:24.300Z,10.20
2022-12-14T07:38:55.606Z,11.97
2022-12-14T07:41:25.297Z,12.70
2022-12-14T07:43:56.444Z,10.90
2022-12-14T07:46:26.417Z,13.03
2022-12-14T07:48:56.677Z,24.43
2022-12-14T07:51:26.760Z,24.63
2022-12-14T07:53:56.697Z,23.40
2022-12-14T07:56:26.318Z,23.30
2022-12-14T07:58:56.523Z,21.67
2022-12-14T08:01:26.700Z,22.90
2022-12-14T08:03:56.697Z,19.17
2022-12-14T08:06:27.064Z,17.97
2022-12-14T08:08:57.176Z,17.47
2022-12-14T08:11:26.480Z,17.10
2022-12-14T08:13:55.061Z,14.73
2022-12-14T08:16:23.725Z,13.17
2022-12-14T08:18:54.145Z,15.47
2022-12-14T08:21:23.689Z,14.50
2022-12-14T08:23:52.943Z,13.33
2022-12-14T08:26:23.736Z,16.53
2022-12-14T08:28:52.091Z,13.33
2022-12-14T08:31:22.715Z,14.77
2022-12-14T08:33:52.095Z,16.83
2022-12-14T08:36:22.537Z,15.83
2022-12-14T08:38:53.562Z,16.47
2022-12-14T08:41:23.646Z,14.83
2022-12-14T08:43:56.955Z,14.13
2022-12-14T08:46:27.195Z,16.07
2022-12-14T08:48:56.330Z,18.43
2022-12-14T08:51:26.451Z,20.57
2022-12-14T08:53:56.174Z,19.93
2022-12-14T08:56:28.292Z,18.20
2022-12-14T08:58:57.063Z,17.27
2022-12-14T09:01:32.831Z,17.77
2022-12-14T09:04:05.000Z,16.80
2022-12-14T09:06:35.455Z,16.57
2022-12-14T09:09:04.035Z,17.97
2022-12-14T09:11:34.105Z,16.57
2022-12-14T09:14:02.335Z,18.43
2022-12-14T09:16:30.719Z,18.03
2022-12-14T09:18:58.963Z,16.33
2022-12-14T09:21:27.227Z,16.53
2022-12-14T09:23:59.560Z,15.03
2022-12-14T09:26:29.774Z,16.37
2022-12-14T09:28:59.636Z,15.60
2022-12-14T09:31:29.042Z,14.83
2022-12-14T09:33:57.743Z,17.00
2022-12-14T09:36:28.261Z,15.20
2022-12-14T09:38:57.811Z,15.27
2022-12-14T09:41:42.000Z,15.77
2022-12-14T09:44:25.827Z,15.83
2022-12-14T09:47:01.010Z,16.93
2022-12-14T09:49:31.119Z,15.67
2022-12-14T09:52:02.420Z,14.03
2022-12-14T09:54:34.196Z,16.83
2022-12-14T09:57:09.921Z,15.67
2022-12-14T09:59:40.114Z,14.87
2022-12-14T10:02:31.950Z,14.90
2022-12-14T10:05:17.167Z,13.40
2022-12-14T10:07:52.865Z,14.87
2022-12-14T10:10:26.730Z,14.43
2022-12-14T10:13:03.847Z,14.30
2022-12-14T10:15:41.407Z,14.20
2022-12-14T10:18:58.752Z,14.57
2022-12-14T10:21:34.686Z,14.57
2022-12-14T10:24:06.364Z,13.90
2022-12-14T10:26:39.410Z,14.47
2022-12-14T10:29:16.419Z,12.77
2022-12-14T10:31:53.815Z,14.10
2022-12-14T10:34:25.546Z,14.60
2022-12-14T10:36:55.760Z,13.27
2022-12-14T10:39:32.135Z,13.37
2022-12-14T10:42:06.344Z,13.47
2022-12-14T10:44:44.334Z,13.93
2022-12-14T10:47:26.818Z,13.13
2022-12-14T10:50:00.612Z,14.03
2022-12-14T10:52:37.087Z,12.20
2022-12-14T10:55:14.311Z,11.00
2022-12-14T10:57:42.669Z,12.27
2022-12-14T11:00:22.568Z,12.63
2022-12-14T11:02:56.994Z,12.47
2022-12-14T11:05:37.968Z,12.33
2022-12-14T11:08:08.676Z,12.00
2022-12-14T11:10:39.565Z,12.10
2022-12-14T11:13:15.738Z,12.17
2022-12-14T11:15:46.555Z,12.27
2022-12-14T11:18:28.878Z,11.53
2022-12-14T11:20:59.451Z,11.73
2022-12-14T11:23:28.876Z,12.37
2022-12-14T11:26:00.105Z,12.07
2022-12-14T11:28:36.994Z,11.43
2022-12-14T11:31:09.997Z,11.30
2022-12-14T11:33:45.994Z,11.47
2022-12-14T11:36:25.962Z,10.60
2022-12-14T11:38:58.974Z,11.77
2022-12-14T11:41:32.699Z,11.10
2022-12-14T11:44:04.022Z,11.70
2022-12-14T11:46:44.935Z,11.50
2022-12-14T11:49:27.804Z,12.20
2022-12-14T11:51:59.525Z,11.40
2022-12-14T11:54:28.232Z,10.03
2022-12-14T11:57:04.090Z,11.03
2022-12-14T11:59:42.344Z,10.00
2022-12-14T12:02:20.568Z,11.57
2022-12-14T12:04:54.621Z,10.50
2022-12-14T12:07:29.739Z,10.53
2022-12-14T12:10:03.341Z,10.83
2022-12-14T12:12:32.772Z,11.37
2022-12-14T12:15:01.820Z,10.73
2022-12-14T12:17:42.386Z,11.13
2022-12-14T12:20:24.676Z,9.90
2022-12-14T12:22:57.613Z,11.37
2022-12-14T12:25:33.611Z,10.00
2022-12-14T12:28:12.289Z,11.70
2022-12-14T12:30:44.342Z,10.93
2022-12-14T12:33:25.593Z,10.73
2022-12-14T12:35:57.295Z,11.50
2022-12-14T12:38:51.988Z,10.73
2022-12-14T12:41:29.311Z,11.23
2022-12-14T12:44:06.086Z,10.33
2022-12-14T12:46:53.582Z,11.27
2022-12-14T12:49:27.861Z,11.37
2022-12-14T12:52:00.934Z,10.90
2022-12-14T12:54:34.326Z,10.70
2022-12-14T12:57:05.166Z,10.70
2022-12-14T12:59:38.570Z,10.00
2022-12-14T13:02:20.152Z,10.00
2022-12-14T13:04:52.847Z,9.70
2022-12-14T13:07:31.635Z,10.93
2022-12-14T13:10:05.923Z,9.77
2022-12-14T13:12:38.352Z,10.27
2022-12-14T13:15:19.262Z,10.83
2022-12-14T13:17:51.697Z,10.20
2022-12-14T13:20:23.783Z,11.43
2022-12-14T13:22:55.009Z,10.30
2022-12-14T13:25:28.195Z,9.53
2022-12-14T13:28:14.915Z,10.27
2022-12-14T13:31:02.734Z,10.20
2022-12-14T13:33:53.326Z,10.50
2022-12-14T13:36:43.183Z,9.47
2022-12-14T13:39:46.522Z,9.87
2022-12-14T13:42:28.609Z,9.87
2022-12-14T13:44:59.701Z,10.10
2022-12-14T13:47:32.212Z,9.77
2022-12-14T13:52:57.994Z,10.03
2022-12-14T13:55:33.804Z,9.93
2022-12-14T13:58:20.454Z,9.43
2022-12-14T14:01:00.946Z,9.33
2022-12-14T14:03:52.858Z,10.33
2022-12-14T14:06:34.734Z,9.97
2022-12-14T14:09:56.894Z,9.87
2022-12-14T14:12:37.932Z,9.10
2022-12-14T14:15:26.289Z,9.87
2022-12-14T14:17:56.352Z,9.37
2022-12-14T14:20:39.649Z,10.10
2022-12-14T14:23:33.940Z,9.53
2022-12-14T14:26:22.607Z,9.73
2022-12-14T14:29:21.789Z,8.80
2022-12-14T14:31:52.971Z,9.47
2022-12-14T14:34:40.075Z,9.37
2022-12-14T14:37:17.007Z,11.23
2022-12-14T14:39:56.879Z,10.87
2022-12-14T14:42:29.958Z,9.30
2022-12-14T14:45:02.493Z,9.57
2022-12-14T14:47:34.740Z,10.83
2022-12-14T14:50:07.191Z,9.50
2022-12-14T14:53:08.968Z,9.57
2022-12-14T14:56:02.716Z,11.00
2022-12-14T14:58:35.212Z,10.20
2022-12-14T15:01:13.955Z,10.50
2022-12-14T15:03:52.375Z,10.63
2022-12-14T15:06:24.402Z,10.27
2022-12-14T15:08:58.434Z,10.17
2022-12-14T15:11:29.432Z,10.13
2022-12-14T15:14:02.075Z,9.53
2022-12-14T15:16:34.160Z,9.73
2022-12-14T15:19:24.804Z,11.63
2022-12-14T15:21:55.575Z,10.03
2022-12-14T15:24:25.322Z,10.00
2022-12-14T15:26:54.156Z,9.73
2022-12-14T15:29:28.846Z,10.40
2022-12-14T15:32:01.945Z,9.63
2022-12-14T15:34:30.695Z,9.43
2022-12-14T15:36:59.051Z,9.97
2022-12-14T15:39:38.326Z,9.73
2022-12-14T15:42:13.003Z,9.30
2022-12-14T15:44:50.223Z,10.10
2022-12-14T15:47:28.465Z,9.27
2022-12-14T15:50:14.494Z,8.77
2022-12-14T15:52:44.774Z,9.03
2022-12-14T15:55:29.220Z,10.07
2022-12-14T15:57:59.012Z,10.47
2022-12-14T16:00:27.428Z,9.90
2022-12-14T16:02:57.360Z,9.93
2022-12-14T16:05:25.931Z,10.83
2022-12-14T16:07:57.262Z,10.93
2022-12-14T16:10:29.588Z,10.17
2022-12-14T16:13:01.022Z,10.40
2022-12-14T16:15:30.518Z,11.50
2022-12-14T16:18:03.398Z,11.10
2022-12-14T16:20:35.041Z,11.87
2022-12-14T16:23:07.824Z,9.90
2022-12-14T16:25:37.818Z,11.47
2022-12-14T16:28:27.667Z,11.23
2022-12-14T16:31:00.481Z,10.10
2022-12-14T16:33:32.238Z,11.07
2022-12-14T16:36:08.481Z,11.23
2022-12-14T16:38:41.986Z,10.97
2022-12-14T16:41:10.964Z,11.03
2022-12-14T16:43:41.721Z,12.00
2022-12-14T16:46:13.544Z,12.40
2022-12-14T16:48:46.472Z,12.87
2022-12-14T16:51:58.735Z,11.87
2022-12-14T16:54:24.963Z,11.70
2022-12-14T16:56:58.276Z,13.57
2022-12-14T16:59:30.392Z,12.90
2022-12-14T17:01:59.241Z,12.90
2022-12-14T17:04:36.278Z,15.33
2022-12-14T17:07:05.383Z,16.27
2022-12-14T17:09:35.485Z,18.07
2022-12-14T17:12:12.528Z,23.00
2022-12-14T17:14:46.033Z,23.07
2022-12-14T17:17:20.980Z,26.10
2022-12-14T17:19:50.737Z,36.87
2022-12-14T17:22:24.050Z,30.10
2022-12-14T17:24:52.729Z,27.33
2022-12-14T17:27:22.350Z,25.33
2022-12-14T17:29:50.916Z,24.80
2022-12-14T17:32:19.746Z,21.67
2022-12-14T17:34:48.292Z,19.60
2022-12-14T17:37:20.753Z,17.33
2022-12-14T17:39:49.633Z,18.63
2022-12-14T17:42:21.454Z,18.63
2022-12-14T17:44:53.596Z,17.27
2022-12-14T17:47:22.668Z,17.03
2022-12-14T17:49:50.930Z,17.50
2022-12-14T17:52:25.044Z,17.93
2022-12-14T17:54:53.468Z,19.07
2022-12-14T17:57:24.062Z,18.73
2022-12-14T18:00:13.209Z,19.37
2022-12-14T18:02:42.785Z,19.33
2022-12-14T18:05:18.609Z,19.53
2022-12-14T18:07:49.569Z,20.80
2022-12-14T18:10:19.615Z,20.60
2022-12-14T18:12:48.448Z,20.07
2022-12-14T18:15:19.439Z,22.60
2022-12-14T18:17:49.231Z,23.43
2022-12-14T18:20:19.260Z,24.37
2022-12-14T18:22:50.013Z,27.47
2022-12-14T18:25:27.844Z,30.57
2022-12-14T18:27:57.325Z,29.70
2022-12-14T18:30:26.424Z,31.90
2022-12-14T18:32:55.893Z,31.33
2022-12-14T18:35:26.236Z,32.33
2022-12-14T18:37:55.937Z,31.00
2022-12-14T18:40:26.505Z,29.80
2022-12-14T18:42:55.710Z,29.03
2022-12-14T18:45:26.239Z,27.97
2022-12-14T18:47:55.219Z,27.73
2022-12-14T18:50:24.779Z,27.47
2022-12-14T18:52:53.350Z,25.77
2022-12-14T18:55:25.870Z,26.07
2022-12-14T18:57:56.531Z,25.27
2022-12-14T19:00:27.030Z,25.60
2022-12-14T19:02:58.977Z,25.20
2022-12-14T19:05:27.838Z,25.00
2022-12-14T19:07:58.782Z,24.87
2022-12-14T19:10:31.267Z,23.63
2022-12-14T19:13:00.445Z,22.80
2022-12-14T19:15:31.147Z,22.00
2022-12-14T19:17:59.780Z,23.50
2022-12-14T19:20:29.303Z,22.73
2022-12-14T19:22:57.821Z,21.30
2022-12-14T19:25:26.536Z,21.97
2022-12-14T19:28:30.941Z,21.67
2022-12-14T19:30:45.194Z,23.30
2022-12-14T19:33:13.597Z,19.67
2022-12-14T19:35:42.636Z,22.33
2022-12-14T19:38:14.095Z,24.03
2022-12-14T19:40:42.962Z,24.80
2022-12-14T19:43:12.807Z,24.40
2022-12-14T19:45:41.399Z,22.43
2022-12-14T19:48:13.112Z,22.50
2022-12-14T19:50:41.995Z,21.67
2022-12-14T19:53:10.312Z,25.13
2022-12-14T19:55:38.721Z,22.27
2022-12-14T19:58:08.219Z,21.90
2022-12-14T20:00:37.926Z,22.83
2022-12-14T20:03:07.476Z,27.00
2022-12-14T20:05:36.010Z,26.53
2022-12-14T20:08:04.563Z,24.43
2022-12-14T20:10:33.985Z,27.97
2022-12-14T20:13:02.523Z,29.23
2022-12-14T20:15:30.877Z,27.17
2022-12-14T20:18:01.154Z,26.10
2022-12-14T20:20:29.489Z,24.93
2022-12-14T20:22:57.844Z,25.63
2022-12-14T20:25:26.438Z,27.63
2022-12-14T20:27:54.754Z,28.00
2022-12-14T20:30:23.078Z,26.10
2022-12-14T20:32:51.361Z,23.97
2022-12-14T20:35:21.032Z,27.70
2022-12-14T20:37:49.365Z,27.87
2022-12-14T20:40:17.735Z,29.70
2022-12-14T20:42:46.026Z,31.00
2022-12-14T20:45:14.498Z,33.53
2022-12-14T20:47:42.766Z,34.00
2022-12-14T20:50:11.059Z,35.63
2022-12-14T20:52:40.811Z,33.80
2022-12-14T20:55:10.416Z,34.60
2022-12-14T20:57:39.050Z,33.80
2022-12-14T21:00:10.133Z,31.20
2022-12-14T21:02:39.262Z,29.53
2022-12-14T21:05:10.131Z,30.03
2022-12-14T21:07:40.698Z,31.80
2022-12-14T21:10:10.616Z,31.10
2022-12-14T21:12:39.787Z,29.80
2022-12-14T21:15:09.647Z,28.37
2022-12-14T21:17:39.173Z,28.57
2022-12-14T21:20:09.379Z,29.17
2022-12-14T21:22:38.164Z,27.87
2022-12-14T21:25:09.433Z,28.23
2022-12-14T21:27:41.481Z,27.53
2022-12-14T21:30:12.979Z,27.80
2022-12-14T21:32:41.488Z,27.17
2022-12-14T21:35:10.696Z,27.03
2022-12-14T21:37:39.803Z,28.17
2022-12-14T21:40:31.130Z,26.10
2022-12-14T21:42:58.716Z,27.63
2022-12-14T21:45:27.152Z,27.10
2022-12-14T21:47:55.537Z,26.90
2022-12-14T21:50:23.926Z,26.23
2022-12-14T21:52:52.262Z,28.07
2022-12-14T21:55:21.905Z,24.23
2022-12-14T21:58:07.326Z,24.60
2022-12-14T22:00:35.908Z,24.60
2022-12-14T22:03:04.245Z,25.53
2022-12-14T22:05:33.400Z,24.17
2022-12-14T22:08:01.880Z,23.97
2022-12-14T22:10:31.551Z,24.47
2022-12-14T22:12:59.829Z,27.73
2022-12-14T22:15:28.052Z,26.83
2022-12-14T22:17:56.398Z,27.67
2022-12-14T22:20:24.865Z,26.40
2022-12-14T22:22:53.100Z,27.67
2022-12-14T22:25:22.042Z,26.20
2022-12-14T22:27:51.703Z,26.87
2022-12-14T22:30:20.834Z,24.27
2022-12-14T22:32:49.137Z,25.10
2022-12-14T22:35:18.119Z,25.07
2022-12-14T22:37:46.457Z,25.70
2022-12-14T22:40:14.833Z,26.07
2022-12-14T22:42:43.106Z,24.70
2022-12-14T22:45:12.824Z,25.40
2022-12-14T22:47:41.074Z,24.90
2022-12-14T22:50:10.250Z,24.50
2022-12-14T22:52:38.675Z,23.00
2022-12-14T22:55:07.762Z,22.13
2022-12-14T22:57:41.719Z,24.70
2022-12-14T23:00:16.488Z,23.67
2022-12-14T23:02:48.319Z,21.93
2022-12-14T23:05:17.318Z,23.20
2022-12-14T23:07:45.845Z,24.37
2022-12-14T23:10:31.594Z,24.70
2022-12-14T23:13:17.149Z,22.53
2022-12-14T23:16:04.388Z,22.03
2022-12-14T23:18:50.669Z,23.97
2022-12-14T23:21:36.762Z,21.90
2022-12-14T23:24:24.031Z,21.00
2022-12-14T23:27:10.162Z,21.33
2022-12-14T23:29:55.733Z,22.07
2022-12-14T23:32:43.083Z,20.30
2022-12-14T23:35:28.980Z,20.17
2022-12-14T23:38:14.812Z,21.53
2022-12-14T23:41:00.455Z,19.87
2022-12-14T23:43:45.852Z,20.23
2022-12-14T23:46:31.533Z,20.37
2022-12-14T23:49:18.506Z,21.93
2022-12-14T23:52:04.157Z,20.80
2022-12-14T23:54:49.915Z,20.17
2022-12-14T23:57:35.685Z,21.50
